PBFO2: Black Fork Below Big Creek Nr Page, OK
Data processed at Fri 24Mar2023 04:25 GMT
All information presented herein is the property of the government of the United States of America and may be revised or deleted at any time without prior notice.
Dissemination of this information without the expressed written consent of the Public Affairs Office, Tulsa District U.S. Army Corps of Engineers is strictly prohibited.
These data are gathered electronically and, as presented, have not undergone any form of quality control. These data are not guaranteed to be valid or correct.
Go to home page.
Go to station list.
Downstream station:
Previous Day
Next Day
Current Day
SHEF ID: PBFO2 Black Fork below Big Creek nr Pa
STATION TYPE:
PRECIP STAGE RIV-FLOW
in ft cfs
Ccp-Rev Ccp-Rev Ccp-Rev
(US/Central)
03/23 00:00 0.00 5.66 144
03/23 01:00 0.00 5.65 142
03/23 02:00 0.00 5.64 140
03/23 03:00 0.00 5.63 138
03/23 04:00 0.00 5.63 138
03/23 05:00 0.00 5.62 136
03/23 06:00 0.00 5.62 136
03/23 07:00 0.00 5.61 135
03/23 08:00 0.00 5.61 135
03/23 09:00 0.00 5.60 133
03/23 10:00 0.00 5.61 135
03/23 11:00 0.00 5.60 133
03/23 12:00 0.00 5.59 131
03/23 13:00 0.00 5.59 131
03/23 14:00 0.00 5.58 129
03/23 15:00 0.00 5.57 128
03/23 16:00 0.00 5.58 129
03/23 17:00 0.00 5.57 128
03/23 18:00 0.00 5.56 126
03/23 19:00 0.00 5.56 126
03/23 20:00 0.00 5.56 126
03/23 21:00 0.00 5.56 126
03/23 22:00 0.00 5.54 122
03/23 23:00 0.00 5.54 122